Time;durP1;ratioP1;P1;durP2;ratioP2;P2;SDS_P1;SDS_P2;PMS_P1;PMS_P2;Temp;Humidity;BMP_temperature;BMP_pressure;BME280_temperature;BME280_humidity;BME280_pressure;Samples;Min_cycle;Max_cycle;Signal;HPM_P1;HPM_P2
2024/02/28 00:02:04;;;;;;;40.33;23.02;;;5.60;99.90;;;;;;5034025;28;20046;-46
2024/02/28 00:04:31;;;;;;;42.90;21.83;;;5.60;99.90;;;;;;5032637;28;20037;-45
2024/02/28 00:06:58;;;;;;;43.90;23.20;;;5.60;99.90;;;;;;5035051;28;20053;-47
2024/02/28 00:09:25;;;;;;;41.53;21.80;;;5.60;99.90;;;;;;5030628;28;20133;-47
2024/02/28 00:11:52;;;;;;;40.45;22.30;;;5.70;99.90;;;;;;5025103;28;20053;-48
2024/02/28 00:14:19;;;;;;;38.60;22.02;;;5.70;99.90;;;;;;5028418;28;20161;-48
2024/02/28 00:16:47;;;;;;;41.58;22.58;;;5.80;99.90;;;;;;5025706;28;20051;-48
2024/02/28 00:19:15;;;;;;;40.00;22.73;;;5.70;99.90;;;;;;5028858;28;20266;-43
2024/02/28 00:21:42;;;;;;;41.65;23.25;;;5.70;99.90;;;;;;5029311;28;20146;-46
2024/02/28 00:24:09;;;;;;;40.15;22.33;;;5.70;99.90;;;;;;5032343;28;20045;-45
2024/02/28 00:26:41;;;;;;;39.65;22.20;;;5.80;99.90;;;;;;5028969;28;20196;-42
2024/02/28 00:29:09;;;;;;;40.03;21.17;;;5.70;99.90;;;;;;5029181;28;20041;-45
2024/02/28 00:31:36;;;;;;;40.92;23.05;;;5.70;99.90;;;;;;5029393;28;20079;-45
2024/02/28 00:34:02;;;;;;;40.60;21.85;;;5.70;99.90;;;;;;5025952;28;20045;-46
2024/02/28 00:36:29;;;;;;;40.05;21.45;;;5.70;99.90;;;;;;5028223;28;20136;-42
2024/02/28 00:39:14;;;;;;;40.50;21.85;;;5.70;99.90;;;;;;5028122;28;20147;-43
2024/02/28 00:41:41;;;;;;;38.88;21.35;;;5.70;99.90;;;;;;5029829;28;20105;-49
2024/02/28 00:44:08;;;;;;;38.17;21.75;;;5.70;99.90;;;;;;5030618;28;20041;-45
2024/02/28 00:46:35;;;;;;;42.92;24.17;;;5.80;99.90;;;;;;5028350;28;20204;-45
2024/02/28 00:49:02;;;;;;;40.38;22.67;;;5.80;99.90;;;;;;5028635;28;20073;-44
2024/02/28 00:51:29;;;;;;;33.40;19.77;;;5.80;99.90;;;;;;5027593;28;20041;-47
2024/02/28 00:53:56;;;;;;;41.03;21.75;;;5.80;99.90;;;;;;5032110;28;20045;-43
2024/02/28 00:56:24;;;;;;;38.40;20.70;;;5.80;99.90;;;;;;5027751;28;20282;-47
2024/02/28 00:58:51;;;;;;;40.13;21.85;;;5.80;99.90;;;;;;5027916;28;20099;-48
2024/02/28 01:01:18;;;;;;;39.40;22.08;;;5.80;99.90;;;;;;5028823;28;20037;-46
2024/02/28 01:03:45;;;;;;;38.97;21.52;;;5.80;99.90;;;;;;5032579;28;20041;-41
2024/02/28 01:06:12;;;;;;;39.42;22.17;;;5.80;99.90;;;;;;5029450;28;20053;-44
2024/02/28 01:08:39;;;;;;;38.10;21.45;;;5.80;99.90;;;;;;5030026;28;20037;-41
2024/02/28 01:11:06;;;;;;;37.90;21.60;;;5.80;99.90;;;;;;5031975;28;20045;-43
2024/02/28 01:13:33;;;;;;;38.30;22.50;;;5.90;99.90;;;;;;5030876;28;20617;-41
2024/02/28 01:16:00;;;;;;;40.10;21.70;;;5.90;99.90;;;;;;5028545;28;20158;-46
2024/02/28 01:18:30;;;;;;;40.60;21.08;;;5.80;99.90;;;;;;5027346;28;20165;-45
2024/02/28 01:20:57;;;;;;;39.67;21.80;;;5.80;99.90;;;;;;5027778;28;20065;-45
2024/02/28 01:23:24;;;;;;;36.22;21.70;;;5.90;99.90;;;;;;5028395;28;20038;-43
2024/02/28 01:25:51;;;;;;;41.28;22.20;;;5.90;99.90;;;;;;5029065;28;20041;-46
2024/02/28 01:28:18;;;;;;;36.03;20.27;;;5.90;99.90;;;;;;5027377;28;20073;-42
2024/02/28 01:30:45;;;;;;;37.03;20.15;;;5.90;99.90;;;;;;5028165;28;20077;-47
2024/02/28 01:33:13;;;;;;;36.58;22.30;;;5.90;99.90;;;;;;5027680;28;20042;-47
2024/02/28 01:35:40;;;;;;;37.05;20.73;;;5.90;99.90;;;;;;5028234;28;20131;-45
2024/02/28 01:38:07;;;;;;;39.40;21.38;;;5.90;99.90;;;;;;5027869;28;20048;-43
2024/02/28 01:40:34;;;;;;;36.08;21.23;;;5.90;99.90;;;;;;5026742;28;20466;-45
2024/02/28 01:43:08;;;;;;;42.05;22.02;;;5.90;99.90;;;;;;5027542;28;20049;-47
2024/02/28 01:45:35;;;;;;;37.17;21.45;;;5.90;99.90;;;;;;5026726;28;20513;-44
2024/02/28 01:48:05;;;;;;;40.67;21.83;;;5.90;99.90;;;;;;5027442;28;20038;-42
2024/02/28 01:50:32;;;;;;;37.50;21.65;;;5.90;99.90;;;;;;5027236;28;20508;-44
2024/02/28 01:53:01;;;;;;;36.72;21.13;;;5.90;99.90;;;;;;5030603;28;20123;-47
2024/02/28 01:55:28;;;;;;;38.78;21.17;;;5.90;99.90;;;;;;5027649;28;20124;-43
2024/02/28 01:57:55;;;;;;;39.30;21.67;;;5.90;99.90;;;;;;5011875;28;20051;-47
2024/02/28 02:00:25;;;;;;;36.28;20.40;;;5.90;99.90;;;;;;5027875;28;20088;-43
2024/02/28 02:02:52;;;;;;;36.67;20.75;;;6.00;99.90;;;;;;5033889;28;20431;-44
2024/02/28 02:05:20;;;;;;;36.78;20.80;;;5.90;99.90;;;;;;5034744;28;20049;-42
2024/02/28 02:07:48;;;;;;;39.63;20.65;;;5.90;99.90;;;;;;5031442;28;20100;-43
2024/02/28 02:10:15;;;;;;;41.15;22.80;;;5.90;99.90;;;;;;5027380;28;20055;-43
2024/02/28 02:12:42;;;;;;;38.13;20.50;;;5.90;99.90;;;;;;5030131;28;20518;-43
2024/02/28 02:15:10;;;;;;;39.65;22.33;;;5.90;99.90;;;;;;5034317;28;20045;-45
2024/02/28 02:17:37;;;;;;;38.40;21.65;;;5.90;99.90;;;;;;5033205;28;20053;-44
2024/02/28 02:20:05;;;;;;;34.42;19.88;;;5.90;99.90;;;;;;5031087;28;20135;-45
2024/02/28 02:22:38;;;;;;;35.55;20.05;;;5.90;99.90;;;;;;5030010;28;20522;-44
2024/02/28 02:25:06;;;;;;;38.00;21.58;;;5.90;99.90;;;;;;5031380;28;20052;-42
2024/02/28 02:27:33;;;;;;;40.03;21.75;;;5.90;99.90;;;;;;5029897;28;21163;-42
2024/02/28 02:29:59;;;;;;;41.08;21.27;;;6.00;99.90;;;;;;5029603;28;20088;-44
2024/02/28 02:32:26;;;;;;;37.60;21.13;;;6.00;99.90;;;;;;5029525;28;20067;-45
2024/02/28 02:34:53;;;;;;;37.85;20.60;;;6.00;99.90;;;;;;5030433;28;20115;-42
2024/02/28 02:37:20;;;;;;;39.00;20.15;;;6.00;99.90;;;;;;5029161;28;20119;-50
2024/02/28 02:39:47;;;;;;;41.53;22.20;;;6.00;99.90;;;;;;5020291;28;20049;-43
2024/02/28 02:42:14;;;;;;;36.13;21.48;;;6.00;99.90;;;;;;5029520;28;20049;-43
2024/02/28 02:44:42;;;;;;;35.90;19.88;;;6.00;99.90;;;;;;5030290;28;20647;-43
2024/02/28 02:47:09;;;;;;;38.38;21.00;;;6.10;99.90;;;;;;5024615;28;20037;-46
2024/02/28 02:49:36;;;;;;;34.53;20.75;;;6.10;99.90;;;;;;5031051;28;20461;-49
2024/02/28 02:52:03;;;;;;;36.00;20.20;;;6.10;99.90;;;;;;5028944;28;20045;-42
2024/02/28 02:54:30;;;;;;;36.55;20.45;;;6.00;99.90;;;;;;5033239;28;20128;-46
2024/02/28 02:56:57;;;;;;;35.40;20.80;;;6.10;99.90;;;;;;5030035;28;20067;-44
2024/02/28 02:59:24;;;;;;;38.28;21.42;;;6.10;99.90;;;;;;5033822;28;20050;-44
2024/02/28 03:01:51;;;;;;;38.15;21.10;;;6.10;99.90;;;;;;5027698;28;20049;-50
2024/02/28 03:04:18;;;;;;;39.42;21.63;;;6.10;99.90;;;;;;5027985;28;20049;-44
2024/02/28 03:06:45;;;;;;;36.50;20.65;;;6.10;99.90;;;;;;5031088;28;20041;-47
2024/02/28 03:09:12;;;;;;;41.20;22.33;;;6.10;99.90;;;;;;5028068;28;20474;-46
2024/02/28 03:11:39;;;;;;;36.88;20.23;;;6.10;99.90;;;;;;5029561;28;20422;-43
2024/02/28 03:14:06;;;;;;;37.88;20.77;;;6.00;99.90;;;;;;5030411;28;20056;-45
2024/02/28 03:16:37;;;;;;;34.75;19.48;;;6.00;99.90;;;;;;5038647;28;20113;-45
2024/02/28 03:19:05;;;;;;;37.30;20.80;;;6.00;99.90;;;;;;5035403;28;20046;-45
2024/02/28 03:21:31;;;;;;;37.75;20.95;;;6.10;99.90;;;;;;5031446;28;20292;-44
2024/02/28 03:23:58;;;;;;;39.45;21.95;;;6.00;99.90;;;;;;5036696;28;20442;-45
2024/02/28 03:26:25;;;;;;;37.45;21.25;;;6.00;99.90;;;;;;5029016;28;20041;-49
2024/02/28 03:28:52;;;;;;;37.60;20.38;;;5.90;99.90;;;;;;5028746;28;20304;-45
2024/02/28 03:31:20;;;;;;;37.17;20.30;;;5.90;99.90;;;;;;5008397;28;20136;-42
2024/02/28 03:33:47;;;;;;;35.60;19.77;;;5.80;99.90;;;;;;5029168;28;20273;-47
2024/02/28 03:36:14;;;;;;;36.20;22.20;;;5.80;99.90;;;;;;5031395;28;20060;-45
2024/02/28 03:38:41;;;;;;;37.50;20.50;;;5.70;99.90;;;;;;5020137;28;20064;-48
2024/02/28 03:41:09;;;;;;;40.22;22.63;;;5.60;99.90;;;;;;5027361;28;20602;-46
2024/02/28 03:43:36;;;;;;;38.72;20.58;;;5.50;99.90;;;;;;5028624;28;20049;-45
2024/02/28 03:46:03;;;;;;;37.10;21.23;;;5.50;99.90;;;;;;5028381;28;20159;-43
2024/02/28 03:48:30;;;;;;;41.03;22.35;;;5.50;99.90;;;;;;5028936;28;20103;-41
2024/02/28 03:50:56;;;;;;;38.25;21.33;;;5.50;99.90;;;;;;5029387;28;20490;-45
2024/02/28 03:53:24;;;;;;;40.45;21.38;;;5.60;99.90;;;;;;5027781;28;20067;-42
2024/02/28 03:55:51;;;;;;;36.90;20.92;;;5.60;99.90;;;;;;5029943;28;20605;-44
2024/02/28 03:58:18;;;;;;;37.33;19.77;;;5.60;99.90;;;;;;5026256;28;20435;-43
2024/02/28 04:00:45;;;;;;;37.00;20.38;;;5.70;99.90;;;;;;5028708;28;20474;-46
2024/02/28 04:03:13;;;;;;;36.83;20.30;;;5.60;99.90;;;;;;5026304;28;20053;-47
2024/02/28 04:05:42;;;;;;;33.83;18.80;;;5.70;99.90;;;;;;5028847;28;20125;-48
2024/02/28 04:08:09;;;;;;;36.13;19.38;;;5.70;99.90;;;;;;5028106;28;20045;-45
2024/02/28 04:10:35;;;;;;;35.47;18.88;;;5.60;99.90;;;;;;5028891;28;20135;-44
2024/02/28 04:13:03;;;;;;;35.67;19.08;;;5.60;99.90;;;;;;5028839;28;20643;-44
2024/02/28 04:15:30;;;;;;;35.05;19.38;;;5.60;99.90;;;;;;5030092;28;20068;-45
2024/02/28 04:17:57;;;;;;;30.33;17.38;;;5.60;99.90;;;;;;5028509;28;20041;-45
2024/02/28 04:20:24;;;;;;;34.50;18.73;;;5.60;99.90;;;;;;5028339;28;20048;-45
2024/02/28 04:22:51;;;;;;;31.05;18.27;;;5.50;99.90;;;;;;5029144;28;20101;-47
2024/02/28 04:25:19;;;;;;;32.92;18.08;;;5.60;99.90;;;;;;5034104;28;20146;-48
2024/02/28 04:27:47;;;;;;;34.92;18.60;;;5.60;99.90;;;;;;5028346;28;20120;-45
2024/02/28 04:30:14;;;;;;;32.45;18.15;;;5.60;99.90;;;;;;5029532;28;20222;-44
2024/02/28 04:32:41;;;;;;;36.05;19.90;;;5.50;99.90;;;;;;5028881;28;20049;-43
2024/02/28 04:35:08;;;;;;;36.55;18.88;;;5.60;99.90;;;;;;5024829;28;20049;-47
2024/02/28 04:37:36;;;;;;;35.17;18.50;;;5.60;99.90;;;;;;5031013;28;20057;-45
2024/02/28 04:40:04;;;;;;;31.58;17.77;;;5.50;99.90;;;;;;5034163;28;20053;-49
2024/02/28 04:42:31;;;;;;;34.17;19.70;;;5.50;99.90;;;;;;5034595;28;20561;-47
2024/02/28 04:44:58;;;;;;;34.03;17.88;;;5.50;99.90;;;;;;5035299;28;20088;-48
2024/02/28 04:47:24;;;;;;;33.97;17.75;;;5.50;99.90;;;;;;5030347;28;20540;-45
2024/02/28 04:50:04;;;;;;;33.60;18.05;;;5.40;99.90;;;;;;5027457;28;20096;-46
2024/02/28 04:52:32;;;;;;;32.15;18.15;;;5.40;99.90;;;;;;5028518;28;20042;-43
2024/02/28 04:55:00;;;;;;;33.95;18.02;;;5.40;99.90;;;;;;5036739;28;20045;-45
2024/02/28 04:57:27;;;;;;;36.85;19.77;;;5.30;99.90;;;;;;5029759;28;20033;-43
2024/02/28 04:59:54;;;;;;;36.65;18.92;;;5.40;99.90;;;;;;5028549;28;20238;-49
2024/02/28 05:02:22;;;;;;;31.90;17.95;;;5.40;99.90;;;;;;5029300;28;20117;-48
2024/02/28 05:04:49;;;;;;;32.03;17.52;;;5.30;99.90;;;;;;5032646;28;20076;-45
2024/02/28 05:07:16;;;;;;;35.35;18.77;;;5.30;99.90;;;;;;5037691;28;20045;-46
2024/02/28 05:09:42;;;;;;;35.90;18.70;;;5.30;99.90;;;;;;5036505;28;20057;-46
2024/02/28 05:12:11;;;;;;;36.60;19.50;;;5.30;99.90;;;;;;5026892;28;20038;-41
2024/02/28 05:14:38;;;;;;;34.72;19.38;;;5.30;99.90;;;;;;5029935;28;20102;-45
2024/02/28 05:17:05;;;;;;;35.03;18.67;;;5.30;99.90;;;;;;5030139;28;20046;-45
2024/02/28 05:19:32;;;;;;;36.55;19.73;;;5.30;99.90;;;;;;5029359;28;20103;-47
2024/02/28 05:22:01;;;;;;;33.22;18.08;;;5.40;99.90;;;;;;5030339;28;20112;-45
2024/02/28 05:24:27;;;;;;;33.90;18.33;;;5.30;99.90;;;;;;5031054;28;20072;-45
2024/02/28 05:26:54;;;;;;;32.92;19.08;;;5.30;99.90;;;;;;5029522;28;20046;-44
2024/02/28 05:29:21;;;;;;;30.70;16.83;;;5.30;99.90;;;;;;5028649;28;20057;-43
2024/02/28 05:31:48;;;;;;;31.75;18.38;;;5.40;99.90;;;;;;5027902;28;20060;-46
2024/02/28 05:34:16;;;;;;;33.95;18.02;;;5.40;99.90;;;;;;5030649;28;20045;-50
2024/02/28 05:36:43;;;;;;;36.30;19.42;;;5.40;99.90;;;;;;5035769;28;20069;-48
2024/02/28 05:39:10;;;;;;;29.20;16.90;;;5.40;99.90;;;;;;5032567;28;20037;-44
2024/02/28 05:41:37;;;;;;;36.20;17.98;;;5.40;99.90;;;;;;5020294;28;20050;-45
2024/02/28 05:44:04;;;;;;;33.28;18.10;;;5.40;99.90;;;;;;5028379;28;20314;-46
2024/02/28 05:46:31;;;;;;;33.35;17.58;;;5.40;99.90;;;;;;5028066;28;20496;-44
2024/02/28 05:48:58;;;;;;;30.45;17.05;;;5.50;99.90;;;;;;5027389;28;20043;-43
2024/02/28 05:51:25;;;;;;;30.75;17.10;;;5.40;99.90;;;;;;5031109;28;20507;-45
2024/02/28 05:53:52;;;;;;;35.85;18.33;;;5.50;99.90;;;;;;5034663;28;20057;-46
2024/02/28 05:56:19;;;;;;;32.70;17.77;;;5.40;99.90;;;;;;5030271;28;20057;-44
2024/02/28 05:58:47;;;;;;;31.50;17.23;;;5.50;99.90;;;;;;5032737;28;20056;-43
2024/02/28 06:01:18;;;;;;;28.58;16.58;;;5.40;99.90;;;;;;5028846;28;20065;-49
2024/02/28 06:03:47;;;;;;;31.58;16.98;;;5.40;99.90;;;;;;5036874;28;20556;-46
2024/02/28 06:06:14;;;;;;;32.38;17.40;;;5.40;99.90;;;;;;5036811;28;20495;-49
2024/02/28 06:08:43;;;;;;;28.50;15.80;;;5.40;99.90;;;;;;5034947;28;20112;-44
2024/02/28 06:11:10;;;;;;;28.23;15.77;;;5.40;99.90;;;;;;5034770;28;20446;-46
2024/02/28 06:13:37;;;;;;;28.17;17.13;;;5.40;99.90;;;;;;5032151;28;20076;-44
2024/02/28 06:16:04;;;;;;;33.50;19.60;;;5.40;99.90;;;;;;5035015;28;20045;-46
2024/02/28 06:18:33;;;;;;;31.90;16.70;;;5.40;99.90;;;;;;5033669;28;20115;-46
2024/02/28 06:21:01;;;;;;;30.55;16.35;;;5.50;99.90;;;;;;5031204;28;20053;-45
2024/02/28 06:23:28;;;;;;;25.35;14.73;;;5.50;99.90;;;;;;5035575;28;20080;-46
2024/02/28 06:25:57;;;;;;;28.63;15.88;;;5.50;99.90;;;;;;5034876;28;20046;-44
2024/02/28 06:28:24;;;;;;;27.58;15.73;;;5.60;99.90;;;;;;5035968;28;20068;-44
2024/02/28 06:30:51;;;;;;;26.95;15.25;;;5.70;99.90;;;;;;5038781;28;20076;-49
2024/02/28 06:33:18;;;;;;;30.88;16.55;;;5.70;99.90;;;;;;5034438;28;20077;-47
2024/02/28 06:35:46;;;;;;;26.23;15.60;;;5.60;99.90;;;;;;5031674;28;20053;-45
2024/02/28 06:38:13;;;;;;;27.77;16.52;;;5.60;99.90;;;;;;5027931;28;20060;-42
2024/02/28 06:40:41;;;;;;;29.50;16.15;;;5.60;99.90;;;;;;5028295;28;20481;-44
2024/02/28 06:43:08;;;;;;;26.80;15.45;;;5.60;99.90;;;;;;5028296;28;20073;-49
2024/02/28 06:45:36;;;;;;;28.00;16.20;;;5.60;99.90;;;;;;5027914;28;20096;-46
2024/02/28 06:48:04;;;;;;;27.38;16.05;;;5.60;99.90;;;;;;5031310;28;20095;-45
2024/02/28 06:50:31;;;;;;;31.45;16.80;;;5.70;99.90;;;;;;5031795;28;20034;-46
2024/02/28 06:52:58;;;;;;;30.80;17.35;;;5.70;99.90;;;;;;5030512;28;20041;-46
2024/02/28 06:55:25;;;;;;;30.85;16.52;;;5.70;99.90;;;;;;5030081;28;20050;-43
2024/02/28 06:57:52;;;;;;;29.98;17.52;;;5.70;99.90;;;;;;5031158;28;20067;-48
2024/02/28 07:00:19;;;;;;;30.70;17.25;;;5.70;99.90;;;;;;5028306;28;20103;-45
2024/02/28 07:02:46;;;;;;;28.92;16.98;;;5.70;99.90;;;;;;5025013;28;20133;-43
2024/02/28 07:05:13;;;;;;;28.67;15.77;;;5.70;99.90;;;;;;5027067;28;20046;-48
2024/02/28 07:07:40;;;;;;;30.00;17.98;;;5.70;99.90;;;;;;5029819;28;20473;-45
2024/02/28 07:10:08;;;;;;;32.58;16.58;;;5.80;99.90;;;;;;5027225;28;20042;-45
2024/02/28 07:12:35;;;;;;;29.23;16.38;;;5.80;99.90;;;;;;5032257;28;20056;-47
2024/02/28 07:15:02;;;;;;;34.55;19.05;;;5.80;99.90;;;;;;5031340;28;20072;-44
2024/02/28 07:17:29;;;;;;;33.67;18.25;;;5.90;99.90;;;;;;5028871;28;20456;-45
2024/02/28 07:19:56;;;;;;;27.73;16.15;;;5.80;99.90;;;;;;5031973;28;20041;-45
2024/02/28 07:22:23;;;;;;;29.75;16.13;;;5.90;99.90;;;;;;5029827;28;20064;-46
2024/02/28 07:24:50;;;;;;;28.50;17.33;;;5.90;99.90;;;;;;5033514;28;20065;-43
2024/02/28 07:27:17;;;;;;;28.98;16.90;;;5.90;99.90;;;;;;5025637;28;20901;-50
2024/02/28 07:29:44;;;;;;;27.15;15.32;;;6.00;99.90;;;;;;5028033;28;20072;-48
2024/02/28 07:32:11;;;;;;;32.45;16.02;;;6.00;99.90;;;;;;5030923;28;20069;-45
2024/02/28 07:34:39;;;;;;;27.10;17.02;;;6.00;99.90;;;;;;5029102;28;20060;-47
2024/02/28 07:37:06;;;;;;;31.52;16.90;;;6.10;99.90;;;;;;5029236;28;20164;-46
2024/02/28 07:39:33;;;;;;;30.63;16.05;;;6.10;99.90;;;;;;5028931;28;20050;-49
2024/02/28 07:42:00;;;;;;;29.10;15.40;;;6.20;99.90;;;;;;5030172;28;20126;-47
2024/02/28 07:44:30;;;;;;;26.25;15.40;;;6.20;99.90;;;;;;5030691;28;20033;-49
2024/02/28 07:46:58;;;;;;;30.05;16.38;;;6.30;99.90;;;;;;5031397;28;20053;-43
2024/02/28 07:49:25;;;;;;;30.88;16.90;;;6.40;99.90;;;;;;5029486;28;20049;-48
2024/02/28 07:51:54;;;;;;;30.27;17.30;;;6.40;99.90;;;;;;5029569;28;20477;-43
2024/02/28 07:54:22;;;;;;;27.27;16.38;;;6.40;99.90;;;;;;5032963;28;20264;-46
2024/02/28 07:56:49;;;;;;;28.33;17.25;;;6.40;99.90;;;;;;5033008;28;20084;-45
2024/02/28 07:59:17;;;;;;;30.73;17.02;;;6.40;99.90;;;;;;5030642;28;20107;-44
2024/02/28 08:01:44;;;;;;;27.95;17.85;;;6.50;99.90;;;;;;5029437;28;20103;-48
2024/02/28 08:04:12;;;;;;;27.65;16.13;;;6.60;99.90;;;;;;5030633;28;20051;-44
2024/02/28 08:06:40;;;;;;;28.23;15.55;;;6.60;99.90;;;;;;5030867;28;20106;-45
2024/02/28 08:09:08;;;;;;;27.30;15.82;;;6.70;99.90;;;;;;5029137;28;20073;-44
2024/02/28 08:11:39;;;;;;;32.22;18.15;;;6.60;99.90;;;;;;5029211;28;20128;-50
2024/02/28 08:14:06;;;;;;;27.80;16.13;;;6.70;99.90;;;;;;5028919;28;20049;-44
2024/02/28 08:16:33;;;;;;;27.45;16.67;;;6.80;99.90;;;;;;5034927;28;20128;-45
2024/02/28 08:19:00;;;;;;;28.15;16.65;;;6.80;99.90;;;;;;5034224;28;20079;-48
2024/02/28 08:21:29;;;;;;;27.42;15.68;;;6.80;99.90;;;;;;5029277;28;20054;-42
2024/02/28 08:23:56;;;;;;;29.52;16.85;;;6.70;99.90;;;;;;5034840;28;20037;-45
2024/02/28 08:26:24;;;;;;;28.50;17.30;;;6.70;99.90;;;;;;5031653;28;20101;-44
2024/02/28 08:28:51;;;;;;;29.48;18.73;;;6.70;99.90;;;;;;5030586;28;20046;-49
2024/02/28 08:31:18;;;;;;;29.10;17.20;;;6.70;99.90;;;;;;5027352;28;20033;-46
2024/02/28 08:33:45;;;;;;;27.23;16.27;;;6.70;99.90;;;;;;5030243;28;20068;-50
2024/02/28 08:36:11;;;;;;;28.42;16.95;;;6.70;99.90;;;;;;5024440;28;20088;-43
2024/02/28 08:38:38;;;;;;;28.30;18.05;;;6.60;99.90;;;;;;5025544;28;20092;-49
2024/02/28 08:41:07;;;;;;;28.13;15.02;;;6.50;99.90;;;;;;5020597;28;20585;-46
2024/02/28 08:43:40;;;;;;;32.03;18.48;;;6.40;99.90;;;;;;5029146;28;20045;-45
2024/02/28 08:46:07;;;;;;;31.20;18.02;;;6.40;99.90;;;;;;5032399;28;20037;-48
2024/02/28 08:48:37;;;;;;;29.48;17.35;;;6.50;99.90;;;;;;5034501;28;20049;-43
2024/02/28 08:51:04;;;;;;;25.98;15.20;;;6.60;99.90;;;;;;5031600;28;20556;-45
2024/02/28 08:53:31;;;;;;;27.08;15.90;;;6.70;99.90;;;;;;5031006;28;20121;-48
2024/02/28 08:55:58;;;;;;;25.95;15.45;;;6.70;99.90;;;;;;5029090;28;20132;-47
2024/02/28 08:58:25;;;;;;;26.95;15.85;;;6.60;99.90;;;;;;5027510;28;20041;-46
2024/02/28 09:00:52;;;;;;;28.02;17.75;;;6.60;99.90;;;;;;5029880;28;20131;-45
2024/02/28 09:03:21;;;;;;;27.17;16.70;;;6.60;99.90;;;;;;5030023;28;20084;-45
2024/02/28 09:05:48;;;;;;;28.05;17.85;;;6.70;99.90;;;;;;5032128;28;20069;-46
2024/02/28 09:08:15;;;;;;;26.75;16.10;;;6.70;99.90;;;;;;5028394;28;20081;-45
2024/02/28 09:10:42;;;;;;;27.50;17.08;;;6.70;99.90;;;;;;5030895;28;20049;-49
2024/02/28 09:13:11;;;;;;;29.63;16.58;;;6.60;99.90;;;;;;5035378;28;20037;-46
2024/02/28 09:15:38;;;;;;;26.17;16.25;;;6.60;99.90;;;;;;5035665;28;20050;-46
2024/02/28 09:18:07;;;;;;;24.58;15.15;;;6.60;99.90;;;;;;5016248;28;20549;-48
2024/02/28 09:20:34;;;;;;;24.52;15.32;;;6.60;99.90;;;;;;5028566;28;20167;-48
2024/02/28 09:23:01;;;;;;;26.38;15.48;;;6.50;99.90;;;;;;5028969;28;20045;-46
2024/02/28 09:25:28;;;;;;;23.02;15.02;;;6.50;99.90;;;;;;5033496;28;20507;-46
2024/02/28 09:27:57;;;;;;;26.13;15.73;;;6.50;99.90;;;;;;5035350;28;20595;-44
2024/02/28 09:30:24;;;;;;;24.65;15.77;;;6.50;99.90;;;;;;5032422;28;20046;-47
2024/02/28 09:32:58;;;;;;;24.00;15.88;;;6.60;99.90;;;;;;5031740;28;20045;-46
2024/02/28 09:35:25;;;;;;;24.48;13.95;;;6.60;99.90;;;;;;5031511;28;20487;-46
2024/02/28 09:37:52;;;;;;;20.75;14.05;;;6.60;99.90;;;;;;5031514;28;20084;-45
2024/02/28 09:40:19;;;;;;;23.02;15.40;;;6.50;99.90;;;;;;5031805;28;20125;-47
2024/02/28 09:42:53;;;;;;;22.30;15.05;;;6.40;99.90;;;;;;5037958;28;20129;-50
2024/02/28 09:45:22;;;;;;;22.23;14.50;;;6.40;99.90;;;;;;5037550;28;20395;-47
2024/02/28 09:47:49;;;;;;;21.83;14.13;;;6.40;99.90;;;;;;5033612;28;20367;-50
2024/02/28 09:50:18;;;;;;;21.98;14.57;;;6.50;99.90;;;;;;5032463;28;20045;-46
2024/02/28 09:52:45;;;;;;;22.60;14.68;;;6.60;99.90;;;;;;5037926;28;20067;-46
2024/02/28 09:55:24;;;;;;;21.83;14.20;;;6.70;99.90;;;;;;5030823;28;20077;-46
2024/02/28 09:57:52;;;;;;;23.00;14.93;;;6.70;99.90;;;;;;5032535;28;20138;-44
2024/02/28 10:00:20;;;;;;;23.67;15.18;;;6.80;99.90;;;;;;5031637;28;20049;-47
2024/02/28 10:02:51;;;;;;;23.23;14.98;;;6.80;99.90;;;;;;5033125;28;20058;-47
2024/02/28 10:05:18;;;;;;;24.65;15.57;;;6.80;99.90;;;;;;5031627;28;20457;-45
2024/02/28 10:07:47;;;;;;;25.30;15.20;;;6.90;99.90;;;;;;5031900;28;20208;-45
2024/02/28 10:10:14;;;;;;;24.27;15.70;;;7.10;99.90;;;;;;5025817;28;20057;-49
2024/02/28 10:12:42;;;;;;;25.20;16.40;;;7.20;99.90;;;;;;5028188;28;20450;-48
2024/02/28 10:15:10;;;;;;;20.52;14.63;;;7.20;99.90;;;;;;5033745;28;20052;-46
2024/02/28 10:17:37;;;;;;;23.90;14.40;;;7.40;99.90;;;;;;5030853;28;20188;-46
2024/02/28 10:20:05;;;;;;;22.35;14.48;;;7.30;99.90;;;;;;5032823;28;20492;-46
2024/02/28 10:22:38;;;;;;;24.30;14.93;;;7.40;99.90;;;;;;5030400;28;20339;-46
2024/02/28 10:25:06;;;;;;;22.20;14.77;;;7.50;99.90;;;;;;5034664;28;20057;-49
2024/02/28 10:27:34;;;;;;;22.77;15.15;;;7.70;99.90;;;;;;5029650;28;20088;-48
2024/02/28 10:30:07;;;;;;;27.13;15.80;;;7.90;99.90;;;;;;5031377;28;20073;-45
2024/02/28 10:32:35;;;;;;;21.90;14.35;;;8.00;99.90;;;;;;5031468;28;20046;-47
2024/02/28 10:35:03;;;;;;;23.10;14.70;;;8.20;99.90;;;;;;5031852;28;20049;-44
2024/02/28 10:37:32;;;;;;;21.92;14.32;;;8.50;99.90;;;;;;5030364;28;20119;-47
2024/02/28 10:40:00;;;;;;;22.40;15.02;;;8.50;99.90;;;;;;5035491;28;20051;-46
2024/02/28 10:42:30;;;;;;;23.63;15.02;;;8.60;99.90;;;;;;5036057;28;20290;-46
2024/02/28 10:45:01;;;;;;;20.38;14.52;;;8.60;99.90;;;;;;5037200;28;20045;-46
2024/02/28 10:47:46;;;;;;;20.98;13.98;;;8.70;99.90;;;;;;5034782;28;20087;-44
2024/02/28 10:50:15;;;;;;;22.92;14.93;;;8.70;99.90;;;;;;5033400;28;20041;-48
2024/02/28 10:52:45;;;;;;;25.25;16.00;;;8.80;99.90;;;;;;5031630;28;20059;-47
2024/02/28 10:55:13;;;;;;;19.73;13.95;;;8.60;99.90;;;;;;5032687;28;20071;-45
2024/02/28 10:57:41;;;;;;;21.08;14.55;;;8.50;99.90;;;;;;5031206;28;20053;-44
2024/02/28 11:00:11;;;;;;;22.38;14.02;;;8.40;99.90;;;;;;5027822;28;20061;-46
2024/02/28 11:02:38;;;;;;;22.98;14.23;;;8.60;99.90;;;;;;5024538;28;20080;-45
2024/02/28 11:05:06;;;;;;;20.30;14.02;;;8.50;99.90;;;;;;5032583;28;20069;-49
2024/02/28 11:07:33;;;;;;;25.10;14.95;;;8.40;99.90;;;;;;5029597;28;20037;-47
2024/02/28 11:10:06;;;;;;;22.08;14.68;;;8.40;99.90;;;;;;5028127;28;20029;-45
2024/02/28 11:12:33;;;;;;;22.17;14.38;;;8.30;99.90;;;;;;5028520;28;20048;-46
2024/02/28 11:15:03;;;;;;;24.33;14.85;;;8.30;99.90;;;;;;5034029;28;20457;-45
2024/02/28 11:17:31;;;;;;;22.52;14.43;;;8.20;99.90;;;;;;5032320;28;20050;-45
2024/02/28 11:19:59;;;;;;;20.85;14.35;;;8.20;99.90;;;;;;5032333;28;20568;-42
2024/02/28 11:22:29;;;;;;;23.95;14.02;;;8.30;99.90;;;;;;5028828;28;20511;-44
2024/02/28 11:24:56;;;;;;;23.80;14.57;;;8.00;99.90;;;;;;5027866;28;20049;-42
2024/02/28 11:27:23;;;;;;;23.10;14.77;;;8.10;99.90;;;;;;5025586;28;20040;-44
2024/02/28 11:29:50;;;;;;;26.60;15.80;;;8.00;99.90;;;;;;5012886;28;20282;-45
2024/02/28 11:32:17;;;;;;;20.60;13.80;;;8.00;99.90;;;;;;5028431;28;20510;-44
2024/02/28 11:34:45;;;;;;;22.20;15.02;;;8.20;99.90;;;;;;5030646;28;20111;-45
2024/02/28 11:37:12;;;;;;;22.80;14.10;;;8.40;99.90;;;;;;5029511;28;20041;-48
2024/02/28 11:39:39;;;;;;;21.42;13.52;;;8.60;99.90;;;;;;5026815;28;20045;-47
2024/02/28 11:42:13;;;;;;;23.00;13.25;;;8.90;99.90;;;;;;5024896;28;20046;-48
2024/02/28 11:44:40;;;;;;;21.13;13.23;;;8.80;99.90;;;;;;5021440;28;20042;-47
2024/02/28 11:47:11;;;;;;;21.05;12.43;;;8.70;99.90;;;;;;5027851;28;20068;-45
2024/02/28 11:49:38;;;;;;;19.65;13.63;;;8.80;99.90;;;;;;5027903;28;20043;-43
2024/02/28 11:52:06;;;;;;;20.77;13.55;;;8.80;99.90;;;;;;5024549;28;20159;-44
2024/02/28 11:54:33;;;;;;;20.52;13.50;;;8.90;99.90;;;;;;5032257;28;20045;-47
2024/02/28 11:57:00;;;;;;;20.98;14.30;;;8.80;99.90;;;;;;5029619;28;20184;-46
2024/02/28 11:59:27;;;;;;;33.03;14.65;;;8.50;99.90;;;;;;5027882;28;20057;-45
2024/02/28 12:01:55;;;;;;;21.30;13.57;;;8.50;99.90;;;;;;5028740;28;20045;-47
2024/02/28 12:04:25;;;;;;;24.45;14.52;;;8.40;99.90;;;;;;5028573;28;20049;-43
2024/02/28 12:06:52;;;;;;;20.35;13.15;;;8.50;99.90;;;;;;5030398;28;20052;-47
2024/02/28 12:09:19;;;;;;;20.23;13.48;;;8.60;99.90;;;;;;5010606;28;20134;-45
2024/02/28 12:12:01;;;;;;;20.48;12.73;;;8.60;99.90;;;;;;5029456;28;20045;-48
2024/02/28 12:14:28;;;;;;;21.42;13.52;;;8.70;99.90;;;;;;5028312;28;20053;-45
2024/02/28 12:16:57;;;;;;;23.95;14.95;;;8.80;99.90;;;;;;5032570;28;20465;-47
2024/02/28 12:19:24;;;;;;;21.50;13.38;;;8.80;99.90;;;;;;5029980;28;20479;-46
2024/02/28 12:21:51;;;;;;;20.27;13.52;;;8.80;99.90;;;;;;5029182;28;20041;-48
2024/02/28 12:24:18;;;;;;;19.25;13.32;;;8.90;99.90;;;;;;5033445;28;20041;-47
2024/02/28 12:26:45;;;;;;;20.85;13.90;;;8.90;99.90;;;;;;5030075;28;20041;-44
2024/02/28 12:29:12;;;;;;;19.25;13.00;;;8.90;99.90;;;;;;5030971;28;20101;-52
2024/02/28 12:31:39;;;;;;;21.35;13.48;;;8.90;99.90;;;;;;5029505;28;20505;-45
2024/02/28 12:34:06;;;;;;;19.88;13.70;;;8.90;99.90;;;;;;5033491;28;20781;-50
2024/02/28 12:36:34;;;;;;;19.17;13.80;;;8.90;99.90;;;;;;5034280;28;20049;-48
2024/02/28 12:39:01;;;;;;;18.20;12.68;;;9.00;99.90;;;;;;5034737;28;20465;-47